Nearby METAR Reports

 

EGTE - Exeter Airport, United Kingdom
Distance from station: S 19km
Updated: 24/06/2017 19:50
Partly cloudy
Partly cloudy
 Wind from WNW
Wind: WNW 22 km/h
Temperature: 17°C
Dew Point: 14°C
Humidity: 83%
Barometer: 1013 hPa
Clouds: Partly cloudy
Visibility: 10 km
Cloud details: Partly cloudy 579 m
2017/06/24 18:50 EGTE 241850Z 29012KT 9999 SCT019 17/14 Q1013
EGDY - Yeovilton (navy), United Kingdom
Distance from station: ENE 55km
Updated: 24/06/2017 19:50
Partly cloudy
Partly cloudy
 Wind from NW
Wind: NW 13 km/h
Temperature: 17°C
Dew Point: 15°C
Humidity: 88%
Barometer: 1013 hPa
Clouds: Partly cloudy
Visibility: 10 km
Cloud details: Mostly cloudy 396 m
Partly cloudy 975 m
2017/06/24 18:50 EGDY 241850Z AUTO 31007KT 9999 BKN013/// SCT032/// 17/15 Q1013
 
EGFF - Cardiff-Wales Ar, United Kingdom
Distance from station: N 56km
Updated: 24/06/2017 19:50
Overcast
Overcast
 Wind from W
Wind: W 22 km/h
Temperature: 15°C
Dew Point: 13°C
Humidity: 88%
Barometer: 1013 hPa
Clouds: Overcast
Visibility: 10 km
Cloud details: Mostly cloudy 305 m
Overcast 518 m
2017/06/24 18:50 EGFF 241850Z AUTO 28012KT 9999 BKN010 OVC017 15/13 Q1013
EGDX - St Athan Raf, United Kingdom
Distance from station: N 58km
Updated: 24/06/2017 19:50
Light rain, Mostly cloudy
Light rain, Mostly cloudy
 Wind from W
Wind: W 22 km/h
Temperature: 15°C
Dew Point: 13°C
Humidity: 88%
Barometer: 1013 hPa
Summary: Light rain
Clouds: Mostly cloudy
Visibility: 10 km
Cloud details: Mostly cloudy 305 m
2017/06/24 18:50 EGDX 241850Z AUTO 27012KT 9999 -RA BKN010/// 15/13 Q1013
 
EGGD - Bristol/Lulsgate, United Kingdom
Distance from station: NE 71km
Updated: 24/06/2017 19:50
Overcast
Overcast
 Wind from W
Wind: W 31 km/h
Temperature: 15°C
Dew Point: 13°C
Humidity: 88%
Barometer: 1013 hPa
Clouds: Overcast
Visibility: 10 km
Cloud details: Mostly cloudy 213 m
Overcast 366 m
2017/06/24 18:50 EGGD 241850Z AUTO 27017KT 9999 BKN007 OVC012 15/13 Q1013